sensor_id;sensor_type;location;lat;lon;timestamp;P1;durP1;ratioP1;P2;durP2;ratioP2
22138;SDS011;25815;52.582;13.408;2023-06-26T00:01:22;10.35;;;8.73;;
22138;SDS011;25815;52.582;13.408;2023-06-26T00:03:48;11.50;;;8.98;;
22138;SDS011;25815;52.582;13.408;2023-06-26T00:06:14;10.43;;;8.80;;
22138;SDS011;25815;52.582;13.408;2023-06-26T00:08:40;10.27;;;8.80;;
22138;SDS011;25815;52.582;13.408;2023-06-26T00:11:08;10.40;;;9.30;;
22138;SDS011;25815;52.582;13.408;2023-06-26T00:13:34;13.90;;;9.52;;
22138;SDS011;25815;52.582;13.408;2023-06-26T00:16:00;11.18;;;9.32;;
22138;SDS011;25815;52.582;13.408;2023-06-26T00:18:28;10.93;;;9.25;;
22138;SDS011;25815;52.582;13.408;2023-06-26T00:20:54;10.98;;;8.95;;
22138;SDS011;25815;52.582;13.408;2023-06-26T00:23:20;11.35;;;9.43;;
22138;SDS011;25815;52.582;13.408;2023-06-26T00:25:46;12.25;;;9.30;;
22138;SDS011;25815;52.582;13.408;2023-06-26T00:28:12;10.57;;;9.25;;
22138;SDS011;25815;52.582;13.408;2023-06-26T00:30:37;13.95;;;10.77;;
22138;SDS011;25815;52.582;13.408;2023-06-26T00:33:03;11.55;;;9.02;;
22138;SDS011;25815;52.582;13.408;2023-06-26T00:35:29;11.00;;;9.23;;
22138;SDS011;25815;52.582;13.408;2023-06-26T00:37:55;11.43;;;9.45;;
22138;SDS011;25815;52.582;13.408;2023-06-26T00:40:21;9.48;;;8.48;;
22138;SDS011;25815;52.582;13.408;2023-06-26T00:42:47;11.88;;;9.57;;
22138;SDS011;25815;52.582;13.408;2023-06-26T00:45:13;11.15;;;9.73;;
22138;SDS011;25815;52.582;13.408;2023-06-26T00:47:39;10.85;;;9.38;;
22138;SDS011;25815;52.582;13.408;2023-06-26T00:50:05;11.52;;;9.65;;
22138;SDS011;25815;52.582;13.408;2023-06-26T00:52:31;13.80;;;9.82;;
22138;SDS011;25815;52.582;13.408;2023-06-26T00:54:58;14.77;;;9.95;;
22138;SDS011;25815;52.582;13.408;2023-06-26T00:57:24;12.50;;;10.10;;
22138;SDS011;25815;52.582;13.408;2023-06-26T00:59:49;11.32;;;9.32;;
22138;SDS011;25815;52.582;13.408;2023-06-26T01:02:15;14.30;;;9.95;;
22138;SDS011;25815;52.582;13.408;2023-06-26T01:04:48;11.20;;;9.05;;
22138;SDS011;25815;52.582;13.408;2023-06-26T01:07:15;11.57;;;9.35;;
22138;SDS011;25815;52.582;13.408;2023-06-26T01:09:43;13.30;;;9.55;;
22138;SDS011;25815;52.582;13.408;2023-06-26T01:12:09;10.75;;;9.40;;
22138;SDS011;25815;52.582;13.408;2023-06-26T01:14:35;12.93;;;9.95;;
22138;SDS011;25815;52.582;13.408;2023-06-26T01:17:01;11.48;;;9.52;;
22138;SDS011;25815;52.582;13.408;2023-06-26T01:19:28;12.55;;;9.80;;
22138;SDS011;25815;52.582;13.408;2023-06-26T01:22:19;13.43;;;10.23;;
22138;SDS011;25815;52.582;13.408;2023-06-26T01:24:42;12.50;;;9.73;;
22138;SDS011;25815;52.582;13.408;2023-06-26T01:27:10;14.73;;;10.50;;
22138;SDS011;25815;52.582;13.408;2023-06-26T01:29:37;11.15;;;9.95;;
22138;SDS011;25815;52.582;13.408;2023-06-26T01:32:03;12.93;;;10.02;;
22138;SDS011;25815;52.582;13.408;2023-06-26T01:34:30;12.38;;;10.23;;
22138;SDS011;25815;52.582;13.408;2023-06-26T01:36:56;12.32;;;9.55;;
22138;SDS011;25815;52.582;13.408;2023-06-26T01:39:22;11.85;;;9.40;;
22138;SDS011;25815;52.582;13.408;2023-06-26T01:41:48;14.27;;;10.05;;
22138;SDS011;25815;52.582;13.408;2023-06-26T01:44:26;12.68;;;9.63;;
22138;SDS011;25815;52.582;13.408;2023-06-26T01:47:00;15.02;;;9.88;;
22138;SDS011;25815;52.582;13.408;2023-06-26T01:51:55;12.50;;;10.18;;
22138;SDS011;25815;52.582;13.408;2023-06-26T01:54:22;11.80;;;10.13;;
22138;SDS011;25815;52.582;13.408;2023-06-26T01:56:49;12.43;;;10.15;;
22138;SDS011;25815;52.582;13.408;2023-06-26T01:59:18;13.35;;;9.98;;
22138;SDS011;25815;52.582;13.408;2023-06-26T02:01:46;10.90;;;9.68;;
22138;SDS011;25815;52.582;13.408;2023-06-26T02:04:12;11.82;;;9.52;;
22138;SDS011;25815;52.582;13.408;2023-06-26T02:06:38;12.60;;;9.45;;
22138;SDS011;25815;52.582;13.408;2023-06-26T02:09:04;11.98;;;9.88;;
22138;SDS011;25815;52.582;13.408;2023-06-26T02:11:30;12.82;;;9.68;;
22138;SDS011;25815;52.582;13.408;2023-06-26T02:13:56;13.55;;;10.25;;
22138;SDS011;25815;52.582;13.408;2023-06-26T02:16:22;12.73;;;9.88;;
22138;SDS011;25815;52.582;13.408;2023-06-26T02:18:48;15.40;;;10.07;;
22138;SDS011;25815;52.582;13.408;2023-06-26T02:21:14;15.20;;;10.73;;
22138;SDS011;25815;52.582;13.408;2023-06-26T02:23:40;14.07;;;10.75;;
22138;SDS011;25815;52.582;13.408;2023-06-26T02:26:06;13.95;;;10.93;;
22138;SDS011;25815;52.582;13.408;2023-06-26T02:28:32;13.45;;;10.57;;
22138;SDS011;25815;52.582;13.408;2023-06-26T02:30:59;20.52;;;10.65;;
22138;SDS011;25815;52.582;13.408;2023-06-26T02:33:25;13.23;;;11.20;;
22138;SDS011;25815;52.582;13.408;2023-06-26T02:35:51;13.70;;;11.15;;
22138;SDS011;25815;52.582;13.408;2023-06-26T02:38:18;15.15;;;11.10;;
22138;SDS011;25815;52.582;13.408;2023-06-26T02:40:44;13.80;;;11.50;;
22138;SDS011;25815;52.582;13.408;2023-06-26T02:43:10;13.63;;;10.93;;
22138;SDS011;25815;52.582;13.408;2023-06-26T02:45:36;14.23;;;10.45;;
22138;SDS011;25815;52.582;13.408;2023-06-26T02:48:02;13.95;;;11.30;;
22138;SDS011;25815;52.582;13.408;2023-06-26T02:50:28;13.38;;;11.25;;
22138;SDS011;25815;52.582;13.408;2023-06-26T02:52:54;13.65;;;10.63;;
22138;SDS011;25815;52.582;13.408;2023-06-26T02:55:20;13.90;;;11.25;;
22138;SDS011;25815;52.582;13.408;2023-06-26T02:57:46;12.15;;;10.60;;
22138;SDS011;25815;52.582;13.408;2023-06-26T03:00:12;16.65;;;11.52;;
22138;SDS011;25815;52.582;13.408;2023-06-26T03:02:38;15.93;;;11.38;;
22138;SDS011;25815;52.582;13.408;2023-06-26T03:05:04;14.52;;;11.48;;
22138;SDS011;25815;52.582;13.408;2023-06-26T03:07:30;14.32;;;11.88;;
22138;SDS011;25815;52.582;13.408;2023-06-26T03:09:56;14.43;;;11.93;;
22138;SDS011;25815;52.582;13.408;2023-06-26T03:12:22;12.63;;;10.77;;
22138;SDS011;25815;52.582;13.408;2023-06-26T03:14:49;13.65;;;11.63;;
22138;SDS011;25815;52.582;13.408;2023-06-26T03:17:15;14.40;;;11.00;;
22138;SDS011;25815;52.582;13.408;2023-06-26T03:19:41;13.32;;;10.88;;
22138;SDS011;25815;52.582;13.408;2023-06-26T03:22:07;13.52;;;11.70;;
22138;SDS011;25815;52.582;13.408;2023-06-26T03:24:33;13.57;;;11.65;;
22138;SDS011;25815;52.582;13.408;2023-06-26T03:26:59;16.42;;;11.18;;
22138;SDS011;25815;52.582;13.408;2023-06-26T03:29:25;14.63;;;11.95;;
22138;SDS011;25815;52.582;13.408;2023-06-26T03:31:51;15.53;;;12.50;;
22138;SDS011;25815;52.582;13.408;2023-06-26T03:34:17;12.98;;;11.07;;
22138;SDS011;25815;52.582;13.408;2023-06-26T03:36:43;13.88;;;11.52;;
22138;SDS011;25815;52.582;13.408;2023-06-26T03:39:09;14.70;;;11.80;;
22138;SDS011;25815;52.582;13.408;2023-06-26T03:41:34;14.15;;;11.57;;
22138;SDS011;25815;52.582;13.408;2023-06-26T03:44:00;14.00;;;11.75;;
22138;SDS011;25815;52.582;13.408;2023-06-26T03:46:27;15.13;;;11.52;;
22138;SDS011;25815;52.582;13.408;2023-06-26T03:48:52;15.18;;;11.57;;
22138;SDS011;25815;52.582;13.408;2023-06-26T03:51:18;13.65;;;11.75;;
22138;SDS011;25815;52.582;13.408;2023-06-26T03:53:45;14.40;;;12.38;;
22138;SDS011;25815;52.582;13.408;2023-06-26T03:56:11;14.95;;;11.60;;
22138;SDS011;25815;52.582;13.408;2023-06-26T03:58:37;14.57;;;11.98;;
22138;SDS011;25815;52.582;13.408;2023-06-26T04:01:03;20.10;;;12.35;;
22138;SDS011;25815;52.582;13.408;2023-06-26T04:03:28;15.73;;;12.52;;
22138;SDS011;25815;52.582;13.408;2023-06-26T04:05:55;16.30;;;12.15;;
22138;SDS011;25815;52.582;13.408;2023-06-26T04:08:21;15.13;;;12.32;;
22138;SDS011;25815;52.582;13.408;2023-06-26T04:10:47;14.23;;;12.75;;
22138;SDS011;25815;52.582;13.408;2023-06-26T04:13:13;15.98;;;13.18;;
22138;SDS011;25815;52.582;13.408;2023-06-26T04:15:39;15.77;;;13.02;;
22138;SDS011;25815;52.582;13.408;2023-06-26T04:18:05;15.82;;;12.50;;
22138;SDS011;25815;52.582;13.408;2023-06-26T04:20:31;13.82;;;12.32;;
22138;SDS011;25815;52.582;13.408;2023-06-26T04:23:00;15.05;;;13.23;;
22138;SDS011;25815;52.582;13.408;2023-06-26T04:25:25;17.98;;;13.13;;
22138;SDS011;25815;52.582;13.408;2023-06-26T04:27:54;17.23;;;12.45;;
22138;SDS011;25815;52.582;13.408;2023-06-26T04:30:20;15.77;;;12.65;;
22138;SDS011;25815;52.582;13.408;2023-06-26T04:32:46;15.38;;;12.73;;
22138;SDS011;25815;52.582;13.408;2023-06-26T04:35:12;15.60;;;12.50;;
22138;SDS011;25815;52.582;13.408;2023-06-26T04:37:38;17.00;;;11.18;;
22138;SDS011;25815;52.582;13.408;2023-06-26T04:40:05;14.00;;;12.40;;
22138;SDS011;25815;52.582;13.408;2023-06-26T04:42:32;13.20;;;11.57;;
22138;SDS011;25815;52.582;13.408;2023-06-26T04:44:58;14.00;;;12.40;;
22138;SDS011;25815;52.582;13.408;2023-06-26T04:47:24;14.13;;;11.85;;
22138;SDS011;25815;52.582;13.408;2023-06-26T04:49:50;15.27;;;12.27;;
22138;SDS011;25815;52.582;13.408;2023-06-26T04:52:16;13.68;;;12.27;;
22138;SDS011;25815;52.582;13.408;2023-06-26T04:54:42;14.13;;;12.73;;
22138;SDS011;25815;52.582;13.408;2023-06-26T04:57:08;16.25;;;12.75;;
22138;SDS011;25815;52.582;13.408;2023-06-26T04:59:34;14.35;;;12.82;;
22138;SDS011;25815;52.582;13.408;2023-06-26T05:02:00;14.73;;;12.50;;
22138;SDS011;25815;52.582;13.408;2023-06-26T05:04:26;14.85;;;13.05;;
22138;SDS011;25815;52.582;13.408;2023-06-26T05:06:52;15.85;;;11.98;;
22138;SDS011;25815;52.582;13.408;2023-06-26T05:09:18;14.38;;;11.90;;
22138;SDS011;25815;52.582;13.408;2023-06-26T05:11:44;13.32;;;11.45;;
22138;SDS011;25815;52.582;13.408;2023-06-26T05:14:10;17.15;;;12.40;;
22138;SDS011;25815;52.582;13.408;2023-06-26T05:16:37;13.50;;;12.10;;
22138;SDS011;25815;52.582;13.408;2023-06-26T05:19:03;14.13;;;11.80;;
22138;SDS011;25815;52.582;13.408;2023-06-26T05:21:29;13.50;;;12.00;;
22138;SDS011;25815;52.582;13.408;2023-06-26T05:23:55;12.68;;;11.05;;
22138;SDS011;25815;52.582;13.408;2023-06-26T05:26:22;12.15;;;10.85;;
22138;SDS011;25815;52.582;13.408;2023-06-26T05:28:48;12.90;;;11.25;;
22138;SDS011;25815;52.582;13.408;2023-06-26T05:31:14;13.15;;;11.45;;
22138;SDS011;25815;52.582;13.408;2023-06-26T05:33:40;15.02;;;11.10;;
22138;SDS011;25815;52.582;13.408;2023-06-26T05:36:08;12.13;;;10.40;;
22138;SDS011;25815;52.582;13.408;2023-06-26T05:38:34;13.18;;;11.07;;
22138;SDS011;25815;52.582;13.408;2023-06-26T05:41:01;11.02;;;9.93;;
22138;SDS011;25815;52.582;13.408;2023-06-26T05:43:27;11.70;;;8.88;;
22138;SDS011;25815;52.582;13.408;2023-06-26T05:45:53;12.13;;;9.15;;
22138;SDS011;25815;52.582;13.408;2023-06-26T05:48:18;11.65;;;8.90;;
22138;SDS011;25815;52.582;13.408;2023-06-26T05:50:44;14.00;;;9.27;;
22138;SDS011;25815;52.582;13.408;2023-06-26T05:53:11;10.10;;;8.95;;
22138;SDS011;25815;52.582;13.408;2023-06-26T05:55:37;10.93;;;9.35;;
22138;SDS011;25815;52.582;13.408;2023-06-26T05:58:04;11.73;;;9.43;;
22138;SDS011;25815;52.582;13.408;2023-06-26T06:00:30;10.98;;;9.65;;
22138;SDS011;25815;52.582;13.408;2023-06-26T06:02:56;12.00;;;10.10;;
22138;SDS011;25815;52.582;13.408;2023-06-26T06:05:22;12.32;;;9.30;;
22138;SDS011;25815;52.582;13.408;2023-06-26T06:07:49;10.10;;;8.93;;
22138;SDS011;25815;52.582;13.408;2023-06-26T06:10:15;12.73;;;9.77;;
22138;SDS011;25815;52.582;13.408;2023-06-26T06:12:41;11.40;;;9.02;;
22138;SDS011;25815;52.582;13.408;2023-06-26T06:15:08;10.75;;;8.30;;
22138;SDS011;25815;52.582;13.408;2023-06-26T06:17:33;11.20;;;8.88;;
22138;SDS011;25815;52.582;13.408;2023-06-26T06:19:59;9.68;;;8.43;;
22138;SDS011;25815;52.582;13.408;2023-06-26T06:22:25;10.93;;;7.88;;
22138;SDS011;25815;52.582;13.408;2023-06-26T06:24:51;16.42;;;8.07;;
22138;SDS011;25815;52.582;13.408;2023-06-26T06:27:17;9.23;;;8.10;;
22138;SDS011;25815;52.582;13.408;2023-06-26T06:29:43;8.43;;;7.47;;
22138;SDS011;25815;52.582;13.408;2023-06-26T06:32:09;10.95;;;7.57;;
22138;SDS011;25815;52.582;13.408;2023-06-26T06:34:35;8.20;;;7.07;;
22138;SDS011;25815;52.582;13.408;2023-06-26T06:37:02;8.45;;;7.07;;
22138;SDS011;25815;52.582;13.408;2023-06-26T06:39:28;11.57;;;7.25;;
22138;SDS011;25815;52.582;13.408;2023-06-26T06:41:54;10.07;;;6.97;;
22138;SDS011;25815;52.582;13.408;2023-06-26T06:44:20;10.20;;;7.18;;
22138;SDS011;25815;52.582;13.408;2023-06-26T06:46:47;10.13;;;7.03;;
22138;SDS011;25815;52.582;13.408;2023-06-26T06:49:12;7.32;;;6.57;;
22138;SDS011;25815;52.582;13.408;2023-06-26T06:51:38;13.05;;;6.20;;
22138;SDS011;25815;52.582;13.408;2023-06-26T06:54:04;8.45;;;6.28;;
22138;SDS011;25815;52.582;13.408;2023-06-26T06:56:30;8.88;;;6.63;;
22138;SDS011;25815;52.582;13.408;2023-06-26T06:58:56;6.95;;;6.25;;
22138;SDS011;25815;52.582;13.408;2023-06-26T07:01:22;6.32;;;5.72;;
22138;SDS011;25815;52.582;13.408;2023-06-26T07:03:48;10.32;;;6.90;;
22138;SDS011;25815;52.582;13.408;2023-06-26T07:06:14;9.35;;;6.57;;
22138;SDS011;25815;52.582;13.408;2023-06-26T07:08:40;8.38;;;6.43;;
22138;SDS011;25815;52.582;13.408;2023-06-26T07:11:06;8.05;;;5.80;;
22138;SDS011;25815;52.582;13.408;2023-06-26T07:13:32;7.85;;;6.80;;
22138;SDS011;25815;52.582;13.408;2023-06-26T07:15:58;8.23;;;6.43;;
22138;SDS011;25815;52.582;13.408;2023-06-26T07:18:24;8.15;;;6.22;;
22138;SDS011;25815;52.582;13.408;2023-06-26T07:20:50;8.00;;;6.32;;
22138;SDS011;25815;52.582;13.408;2023-06-26T07:23:15;8.55;;;5.60;;
22138;SDS011;25815;52.582;13.408;2023-06-26T07:25:41;7.80;;;6.03;;
22138;SDS011;25815;52.582;13.408;2023-06-26T07:28:11;8.70;;;5.60;;
22138;SDS011;25815;52.582;13.408;2023-06-26T07:33:03;9.10;;;5.40;;
22138;SDS011;25815;52.582;13.408;2023-06-26T07:35:29;5.30;;;4.75;;
22138;SDS011;25815;52.582;13.408;2023-06-26T07:37:55;6.00;;;5.05;;
22138;SDS011;25815;52.582;13.408;2023-06-26T07:40:21;7.03;;;5.05;;
22138;SDS011;25815;52.582;13.408;2023-06-26T07:42:47;9.00;;;5.40;;
22138;SDS011;25815;52.582;13.408;2023-06-26T07:45:13;7.35;;;5.80;;
22138;SDS011;25815;52.582;13.408;2023-06-26T07:47:39;6.18;;;5.43;;
22138;SDS011;25815;52.582;13.408;2023-06-26T07:50:05;7.10;;;5.25;;
22138;SDS011;25815;52.582;13.408;2023-06-26T07:52:31;7.22;;;5.55;;
22138;SDS011;25815;52.582;13.408;2023-06-26T07:54:57;11.90;;;5.70;;
22138;SDS011;25815;52.582;13.408;2023-06-26T07:57:23;5.45;;;4.93;;
22138;SDS011;25815;52.582;13.408;2023-06-26T07:59:50;6.00;;;5.20;;
22138;SDS011;25815;52.582;13.408;2023-06-26T08:02:16;7.22;;;5.40;;
22138;SDS011;25815;52.582;13.408;2023-06-26T08:04:43;7.15;;;5.00;;
22138;SDS011;25815;52.582;13.408;2023-06-26T08:07:09;8.23;;;5.78;;
22138;SDS011;25815;52.582;13.408;2023-06-26T08:09:35;6.35;;;5.13;;
22138;SDS011;25815;52.582;13.408;2023-06-26T08:12:01;5.65;;;4.80;;
22138;SDS011;25815;52.582;13.408;2023-06-26T08:14:27;5.70;;;4.40;;
22138;SDS011;25815;52.582;13.408;2023-06-26T08:16:53;6.65;;;4.85;;
22138;SDS011;25815;52.582;13.408;2023-06-26T08:19:19;5.03;;;4.50;;
22138;SDS011;25815;52.582;13.408;2023-06-26T08:21:46;4.78;;;4.30;;
22138;SDS011;25815;52.582;13.408;2023-06-26T08:24:12;4.70;;;4.15;;
22138;SDS011;25815;52.582;13.408;2023-06-26T08:26:38;5.32;;;4.30;;
22138;SDS011;25815;52.582;13.408;2023-06-26T08:29:04;7.82;;;4.65;;
22138;SDS011;25815;52.582;13.408;2023-06-26T08:31:33;6.35;;;4.50;;
22138;SDS011;25815;52.582;13.408;2023-06-26T08:34:00;4.57;;;3.92;;
22138;SDS011;25815;52.582;13.408;2023-06-26T08:36:26;5.45;;;4.18;;
22138;SDS011;25815;52.582;13.408;2023-06-26T08:38:52;6.47;;;4.38;;
22138;SDS011;25815;52.582;13.408;2023-06-26T08:41:17;6.15;;;4.20;;
22138;SDS011;25815;52.582;13.408;2023-06-26T08:43:43;6.15;;;4.60;;
22138;SDS011;25815;52.582;13.408;2023-06-26T08:46:09;5.13;;;4.07;;
22138;SDS011;25815;52.582;13.408;2023-06-26T08:48:35;4.60;;;3.83;;
22138;SDS011;25815;52.582;13.408;2023-06-26T08:51:05;4.45;;;4.03;;
22138;SDS011;25815;52.582;13.408;2023-06-26T08:56:00;4.53;;;3.63;;
22138;SDS011;25815;52.582;13.408;2023-06-26T08:58:27;5.88;;;3.88;;
22138;SDS011;25815;52.582;13.408;2023-06-26T09:00:53;4.72;;;3.70;;
22138;SDS011;25815;52.582;13.408;2023-06-26T09:03:21;3.80;;;3.40;;
22138;SDS011;25815;52.582;13.408;2023-06-26T09:05:47;4.50;;;3.40;;
22138;SDS011;25815;52.582;13.408;2023-06-26T09:08:13;7.50;;;3.97;;
22138;SDS011;25815;52.582;13.408;2023-06-26T09:10:39;5.40;;;3.35;;
22138;SDS011;25815;52.582;13.408;2023-06-26T09:13:05;4.30;;;3.50;;
22138;SDS011;25815;52.582;13.408;2023-06-26T09:15:38;4.72;;;3.72;;
22138;SDS011;25815;52.582;13.408;2023-06-26T09:18:04;4.43;;;3.60;;
22138;SDS011;25815;52.582;13.408;2023-06-26T09:20:30;5.18;;;3.90;;
22138;SDS011;25815;52.582;13.408;2023-06-26T09:23:00;8.25;;;4.13;;
22138;SDS011;25815;52.582;13.408;2023-06-26T09:25:27;4.15;;;3.75;;
22138;SDS011;25815;52.582;13.408;2023-06-26T09:27:53;4.38;;;3.80;;
22138;SDS011;25815;52.582;13.408;2023-06-26T09:30:19;6.38;;;3.60;;
22138;SDS011;25815;52.582;13.408;2023-06-26T09:32:45;4.22;;;3.50;;
22138;SDS011;25815;52.582;13.408;2023-06-26T09:35:11;4.20;;;3.72;;
22138;SDS011;25815;52.582;13.408;2023-06-26T09:37:37;4.65;;;3.78;;
22138;SDS011;25815;52.582;13.408;2023-06-26T09:40:04;4.13;;;3.40;;
22138;SDS011;25815;52.582;13.408;2023-06-26T09:42:30;5.28;;;3.50;;
22138;SDS011;25815;52.582;13.408;2023-06-26T09:44:56;4.55;;;4.15;;
22138;SDS011;25815;52.582;13.408;2023-06-26T09:47:23;4.72;;;4.22;;
22138;SDS011;25815;52.582;13.408;2023-06-26T09:49:49;5.15;;;3.80;;
22138;SDS011;25815;52.582;13.408;2023-06-26T09:52:17;4.53;;;3.78;;
22138;SDS011;25815;52.582;13.408;2023-06-26T09:54:44;4.97;;;3.85;;
22138;SDS011;25815;52.582;13.408;2023-06-26T09:57:16;6.13;;;4.20;;
22138;SDS011;25815;52.582;13.408;2023-06-26T09:59:42;3.97;;;3.47;;
22138;SDS011;25815;52.582;13.408;2023-06-26T10:02:12;5.18;;;4.53;;
22138;SDS011;25815;52.582;13.408;2023-06-26T10:04:38;5.43;;;4.13;;
22138;SDS011;25815;52.582;13.408;2023-06-26T10:07:04;6.28;;;4.50;;
22138;SDS011;25815;52.582;13.408;2023-06-26T10:09:30;5.38;;;4.20;;
22138;SDS011;25815;52.582;13.408;2023-06-26T10:12:04;4.82;;;4.32;;
22138;SDS011;25815;52.582;13.408;2023-06-26T10:14:34;4.65;;;4.10;;
22138;SDS011;25815;52.582;13.408;2023-06-26T10:17:01;4.45;;;4.03;;
22138;SDS011;25815;52.582;13.408;2023-06-26T10:19:28;6.55;;;4.28;;
22138;SDS011;25815;52.582;13.408;2023-06-26T10:21:55;4.63;;;3.60;;
22138;SDS011;25815;52.582;13.408;2023-06-26T10:24:23;3.20;;;2.83;;
22138;SDS011;25815;52.582;13.408;2023-06-26T10:26:50;4.20;;;3.05;;
22138;SDS011;25815;52.582;13.408;2023-06-26T10:29:17;6.40;;;2.90;;
22138;SDS011;25815;52.582;13.408;2023-06-26T10:31:47;3.67;;;3.15;;
22138;SDS011;25815;52.582;13.408;2023-06-26T10:34:13;4.25;;;3.47;;
22138;SDS011;25815;52.582;13.408;2023-06-26T10:36:39;3.22;;;2.92;;
22138;SDS011;25815;52.582;13.408;2023-06-26T10:39:05;4.07;;;3.35;;
22138;SDS011;25815;52.582;13.408;2023-06-26T10:41:38;3.72;;;3.42;;
22138;SDS011;25815;52.582;13.408;2023-06-26T10:44:08;5.10;;;3.78;;
22138;SDS011;25815;52.582;13.408;2023-06-26T10:46:50;6.00;;;3.55;;
22138;SDS011;25815;52.582;13.408;2023-06-26T10:49:17;4.72;;;3.72;;
22138;SDS011;25815;52.582;13.408;2023-06-26T10:51:47;4.80;;;3.40;;
22138;SDS011;25815;52.582;13.408;2023-06-26T10:54:20;5.07;;;3.47;;
22138;SDS011;25815;52.582;13.408;2023-06-26T10:56:46;4.18;;;3.78;;
22138;SDS011;25815;52.582;13.408;2023-06-26T10:59:13;4.13;;;3.58;;
22138;SDS011;25815;52.582;13.408;2023-06-26T11:01:40;4.72;;;3.28;;
22138;SDS011;25815;52.582;13.408;2023-06-26T11:04:07;5.65;;;3.60;;
22138;SDS011;25815;52.582;13.408;2023-06-26T11:06:34;4.40;;;3.60;;
22138;SDS011;25815;52.582;13.408;2023-06-26T11:09:07;5.18;;;3.80;;
22138;SDS011;25815;52.582;13.408;2023-06-26T11:14:23;3.92;;;3.47;;
22138;SDS011;25815;52.582;13.408;2023-06-26T11:16:49;5.75;;;3.90;;
22138;SDS011;25815;52.582;13.408;2023-06-26T11:19:19;4.03;;;3.63;;
22138;SDS011;25815;52.582;13.408;2023-06-26T11:21:45;5.85;;;3.72;;
22138;SDS011;25815;52.582;13.408;2023-06-26T11:24:12;5.68;;;3.75;;
22138;SDS011;25815;52.582;13.408;2023-06-26T11:26:41;3.85;;;3.47;;
22138;SDS011;25815;52.582;13.408;2023-06-26T11:29:08;4.25;;;3.85;;
22138;SDS011;25815;52.582;13.408;2023-06-26T11:31:35;5.22;;;3.83;;
22138;SDS011;25815;52.582;13.408;2023-06-26T11:34:03;4.80;;;4.00;;
22138;SDS011;25815;52.582;13.408;2023-06-26T11:36:29;6.68;;;3.78;;
22138;SDS011;25815;52.582;13.408;2023-06-26T11:39:01;4.75;;;4.20;;
22138;SDS011;25815;52.582;13.408;2023-06-26T11:41:29;5.15;;;3.65;;
22138;SDS011;25815;52.582;13.408;2023-06-26T11:43:55;6.10;;;3.95;;
22138;SDS011;25815;52.582;13.408;2023-06-26T11:46:21;4.28;;;3.88;;
22138;SDS011;25815;52.582;13.408;2023-06-26T11:48:48;5.00;;;3.80;;
22138;SDS011;25815;52.582;13.408;2023-06-26T11:51:15;4.55;;;4.07;;
22138;SDS011;25815;52.582;13.408;2023-06-26T11:53:41;4.20;;;3.80;;
22138;SDS011;25815;52.582;13.408;2023-06-26T11:56:11;5.28;;;3.80;;
22138;SDS011;25815;52.582;13.408;2023-06-26T12:01:23;4.45;;;3.75;;
22138;SDS011;25815;52.582;13.408;2023-06-26T12:03:49;5.07;;;4.38;;
22138;SDS011;25815;52.582;13.408;2023-06-26T12:06:15;4.40;;;4.00;;
22138;SDS011;25815;52.582;13.408;2023-06-26T12:08:42;4.38;;;3.97;;
22138;SDS011;25815;52.582;13.408;2023-06-26T12:11:08;4.60;;;4.20;;
22138;SDS011;25815;52.582;13.408;2023-06-26T12:13:34;7.20;;;3.92;;
22138;SDS011;25815;52.582;13.408;2023-06-26T12:16:00;6.10;;;4.45;;
22138;SDS011;25815;52.582;13.408;2023-06-26T12:18:32;4.93;;;4.22;;
22138;SDS011;25815;52.582;13.408;2023-06-26T12:20:58;4.55;;;4.00;;
22138;SDS011;25815;52.582;13.408;2023-06-26T12:23:24;4.43;;;4.03;;
22138;SDS011;25815;52.582;13.408;2023-06-26T12:25:57;4.35;;;3.83;;
22138;SDS011;25815;52.582;13.408;2023-06-26T12:28:23;5.70;;;3.90;;
22138;SDS011;25815;52.582;13.408;2023-06-26T12:31:11;4.75;;;3.75;;
22138;SDS011;25815;52.582;13.408;2023-06-26T12:33:36;7.20;;;4.40;;
22138;SDS011;25815;52.582;13.408;2023-06-26T12:36:02;4.78;;;4.38;;
22138;SDS011;25815;52.582;13.408;2023-06-26T12:38:34;5.68;;;4.25;;
22138;SDS011;25815;52.582;13.408;2023-06-26T12:41:00;6.50;;;4.20;;
22138;SDS011;25815;52.582;13.408;2023-06-26T12:43:26;5.25;;;3.80;;
22138;SDS011;25815;52.582;13.408;2023-06-26T12:45:55;4.97;;;4.50;;
22138;SDS011;25815;52.582;13.408;2023-06-26T12:48:21;5.10;;;4.60;;
22138;SDS011;25815;52.582;13.408;2023-06-26T12:50:47;5.45;;;4.50;;
22138;SDS011;25815;52.582;13.408;2023-06-26T12:53:15;5.22;;;4.72;;
22138;SDS011;25815;52.582;13.408;2023-06-26T12:55:41;4.90;;;4.40;;
22138;SDS011;25815;52.582;13.408;2023-06-26T12:58:07;5.13;;;4.65;;
22138;SDS011;25815;52.582;13.408;2023-06-26T13:00:33;5.22;;;4.07;;
22138;SDS011;25815;52.582;13.408;2023-06-26T13:02:59;6.05;;;4.82;;
22138;SDS011;25815;52.582;13.408;2023-06-26T13:05:25;4.43;;;4.03;;
22138;SDS011;25815;52.582;13.408;2023-06-26T13:07:50;6.50;;;4.65;;
22138;SDS011;25815;52.582;13.408;2023-06-26T13:10:16;5.10;;;4.60;;
22138;SDS011;25815;52.582;13.408;2023-06-26T13:12:42;5.40;;;4.50;;
22138;SDS011;25815;52.582;13.408;2023-06-26T13:15:08;6.93;;;4.43;;
22138;SDS011;25815;52.582;13.408;2023-06-26T13:17:34;6.63;;;5.72;;
22138;SDS011;25815;52.582;13.408;2023-06-26T13:20:00;5.00;;;4.50;;
22138;SDS011;25815;52.582;13.408;2023-06-26T13:22:26;5.63;;;5.13;;
22138;SDS011;25815;52.582;13.408;2023-06-26T13:24:52;5.38;;;4.50;;
22138;SDS011;25815;52.582;13.408;2023-06-26T13:27:18;7.40;;;4.88;;
22138;SDS011;25815;52.582;13.408;2023-06-26T13:29:45;5.40;;;4.90;;
22138;SDS011;25815;52.582;13.408;2023-06-26T13:32:11;5.55;;;5.05;;
22138;SDS011;25815;52.582;13.408;2023-06-26T13:34:37;6.32;;;4.80;;
22138;SDS011;25815;52.582;13.408;2023-06-26T13:37:03;5.30;;;4.60;;
22138;SDS011;25815;52.582;13.408;2023-06-26T13:39:29;6.68;;;4.85;;
22138;SDS011;25815;52.582;13.408;2023-06-26T13:41:55;5.40;;;4.85;;
22138;SDS011;25815;52.582;13.408;2023-06-26T13:44:21;5.85;;;4.95;;
22138;SDS011;25815;52.582;13.408;2023-06-26T13:49:12;6.28;;;5.68;;
22138;SDS011;25815;52.582;13.408;2023-06-26T13:51:38;5.60;;;4.88;;
22138;SDS011;25815;52.582;13.408;2023-06-26T13:54:10;4.90;;;4.40;;
22138;SDS011;25815;52.582;13.408;2023-06-26T13:56:36;5.75;;;5.22;;
22138;SDS011;25815;52.582;13.408;2023-06-26T13:59:02;7.82;;;5.13;;
22138;SDS011;25815;52.582;13.408;2023-06-26T14:01:29;6.70;;;5.07;;
22138;SDS011;25815;52.582;13.408;2023-06-26T14:03:55;5.43;;;4.93;;
22138;SDS011;25815;52.582;13.408;2023-06-26T14:06:21;5.43;;;4.93;;
22138;SDS011;25815;52.582;13.408;2023-06-26T14:08:47;5.93;;;5.35;;
22138;SDS011;25815;52.582;13.408;2023-06-26T14:11:13;6.28;;;5.63;;
22138;SDS011;25815;52.582;13.408;2023-06-26T14:13:40;5.70;;;5.20;;
22138;SDS011;25815;52.582;13.408;2023-06-26T14:16:06;7.18;;;5.53;;
22138;SDS011;25815;52.582;13.408;2023-06-26T14:18:32;7.00;;;5.90;;
22138;SDS011;25815;52.582;13.408;2023-06-26T14:20:59;10.20;;;5.55;;
22138;SDS011;25815;52.582;13.408;2023-06-26T14:23:28;7.68;;;5.20;;
22138;SDS011;25815;52.582;13.408;2023-06-26T14:25:53;15.02;;;5.78;;
22138;SDS011;25815;52.582;13.408;2023-06-26T14:28:19;25.63;;;8.75;;
22138;SDS011;25815;52.582;13.408;2023-06-26T14:30:45;18.63;;;9.65;;
22138;SDS011;25815;52.582;13.408;2023-06-26T14:33:11;16.63;;;9.02;;
22138;SDS011;25815;52.582;13.408;2023-06-26T14:35:37;17.42;;;9.68;;
22138;SDS011;25815;52.582;13.408;2023-06-26T14:38:03;17.90;;;11.05;;